sensor_id;sensor_type;location;lat;lon;timestamp;P1;durP1;ratioP1;P2;durP2;ratioP2
11131;SDS011;5620;53.570;9.718;2022-09-09T00:01:28;42.88;;;14.07;;
11131;SDS011;5620;53.570;9.718;2022-09-09T00:04:26;54.00;;;15.02;;
11131;SDS011;5620;53.570;9.718;2022-09-09T00:07:19;25.50;;;13.37;;
11131;SDS011;5620;53.570;9.718;2022-09-09T00:12:57;53.08;;;13.82;;
11131;SDS011;5620;53.570;9.718;2022-09-09T00:20:49;64.37;;;14.17;;
11131;SDS011;5620;53.570;9.718;2022-09-09T00:23:31;110.00;;;14.48;;
11131;SDS011;5620;53.570;9.718;2022-09-09T00:31:37;16.40;;;14.05;;
11131;SDS011;5620;53.570;9.718;2022-09-09T00:34:18;16.77;;;13.93;;
11131;SDS011;5620;53.570;9.718;2022-09-09T00:36:48;19.77;;;14.05;;
11131;SDS011;5620;53.570;9.718;2022-09-09T00:39:34;16.25;;;13.18;;
11131;SDS011;5620;53.570;9.718;2022-09-09T00:48:32;15.10;;;13.60;;
11131;SDS011;5620;53.570;9.718;2022-09-09T00:51:15;16.98;;;13.50;;
11131;SDS011;5620;53.570;9.718;2022-09-09T00:56:37;15.57;;;13.98;;
11131;SDS011;5620;53.570;9.718;2022-09-09T00:59:50;30.38;;;18.90;;
11131;SDS011;5620;53.570;9.718;2022-09-09T01:02:36;21.20;;;17.53;;
11131;SDS011;5620;53.570;9.718;2022-09-09T01:08:21;15.57;;;12.95;;
11131;SDS011;5620;53.570;9.718;2022-09-09T01:11:20;15.70;;;13.57;;
11131;SDS011;5620;53.570;9.718;2022-09-09T01:13:52;14.35;;;12.57;;
11131;SDS011;5620;53.570;9.718;2022-09-09T01:16:23;15.13;;;13.63;;
11131;SDS011;5620;53.570;9.718;2022-09-09T01:18:55;16.85;;;13.43;;
11131;SDS011;5620;53.570;9.718;2022-09-09T01:21:56;14.98;;;13.50;;
11131;SDS011;5620;53.570;9.718;2022-09-09T01:24:25;15.88;;;12.85;;
11131;SDS011;5620;53.570;9.718;2022-09-09T01:27:12;14.68;;;13.18;;
11131;SDS011;5620;53.570;9.718;2022-09-09T01:29:43;15.13;;;13.53;;
11131;SDS011;5620;53.570;9.718;2022-09-09T01:38:09;13.65;;;11.75;;
11131;SDS011;5620;53.570;9.718;2022-09-09T01:40:37;14.80;;;12.15;;
11131;SDS011;5620;53.570;9.718;2022-09-09T01:43:15;14.07;;;12.57;;
11131;SDS011;5620;53.570;9.718;2022-09-09T01:45:41;13.85;;;11.70;;
11131;SDS011;5620;53.570;9.718;2022-09-09T01:48:09;16.05;;;11.60;;
11131;SDS011;5620;53.570;9.718;2022-09-09T01:50:35;12.97;;;11.67;;
11131;SDS011;5620;53.570;9.718;2022-09-09T01:53:03;12.68;;;11.50;;
11131;SDS011;5620;53.570;9.718;2022-09-09T01:58:18;17.25;;;12.07;;
11131;SDS011;5620;53.570;9.718;2022-09-09T02:00:59;18.40;;;11.27;;
11131;SDS011;5620;53.570;9.718;2022-09-09T02:04:04;12.30;;;11.02;;
11131;SDS011;5620;53.570;9.718;2022-09-09T02:06:39;14.02;;;11.13;;
11131;SDS011;5620;53.570;9.718;2022-09-09T02:09:07;16.58;;;12.35;;
11131;SDS011;5620;53.570;9.718;2022-09-09T02:11:42;12.43;;;10.23;;
11131;SDS011;5620;53.570;9.718;2022-09-09T02:14:23;13.57;;;10.37;;
11131;SDS011;5620;53.570;9.718;2022-09-09T02:17:08;13.63;;;10.73;;
11131;SDS011;5620;53.570;9.718;2022-09-09T02:19:39;10.75;;;9.80;;
11131;SDS011;5620;53.570;9.718;2022-09-09T02:22:16;13.07;;;9.75;;
11131;SDS011;5620;53.570;9.718;2022-09-09T02:24:53;14.65;;;10.32;;
11131;SDS011;5620;53.570;9.718;2022-09-09T02:27:24;18.30;;;11.93;;
11131;SDS011;5620;53.570;9.718;2022-09-09T02:29:50;11.57;;;10.32;;
11131;SDS011;5620;53.570;9.718;2022-09-09T02:32:20;16.60;;;10.40;;
11131;SDS011;5620;53.570;9.718;2022-09-09T02:34:50;11.43;;;10.10;;
11131;SDS011;5620;53.570;9.718;2022-09-09T02:37:26;18.60;;;11.23;;
11131;SDS011;5620;53.570;9.718;2022-09-09T02:39:57;19.33;;;9.90;;
11131;SDS011;5620;53.570;9.718;2022-09-09T02:42:25;11.40;;;10.40;;
11131;SDS011;5620;53.570;9.718;2022-09-09T02:44:51;10.98;;;9.98;;
11131;SDS011;5620;53.570;9.718;2022-09-09T02:53:18;19.83;;;11.30;;
11131;SDS011;5620;53.570;9.718;2022-09-09T02:55:56;13.07;;;10.85;;
11131;SDS011;5620;53.570;9.718;2022-09-09T02:58:30;11.45;;;10.35;;
11131;SDS011;5620;53.570;9.718;2022-09-09T03:00:57;14.35;;;10.27;;
11131;SDS011;5620;53.570;9.718;2022-09-09T03:03:24;17.23;;;10.70;;
11131;SDS011;5620;53.570;9.718;2022-09-09T03:05:50;13.77;;;11.00;;
11131;SDS011;5620;53.570;9.718;2022-09-09T03:08:16;19.48;;;10.30;;
11131;SDS011;5620;53.570;9.718;2022-09-09T03:10:44;12.40;;;9.80;;
11131;SDS011;5620;53.570;9.718;2022-09-09T03:13:10;11.73;;;10.05;;
11131;SDS011;5620;53.570;9.718;2022-09-09T03:15:36;11.47;;;10.17;;
11131;SDS011;5620;53.570;9.718;2022-09-09T03:18:01;12.13;;;9.17;;
11131;SDS011;5620;53.570;9.718;2022-09-09T03:20:29;11.00;;;10.02;;
11131;SDS011;5620;53.570;9.718;2022-09-09T03:22:55;11.50;;;10.30;;
11131;SDS011;5620;53.570;9.718;2022-09-09T03:25:23;10.73;;;9.57;;
11131;SDS011;5620;53.570;9.718;2022-09-09T03:27:49;10.95;;;9.88;;
11131;SDS011;5620;53.570;9.718;2022-09-09T03:30:16;10.65;;;9.65;;
11131;SDS011;5620;53.570;9.718;2022-09-09T03:32:42;19.00;;;9.80;;
11131;SDS011;5620;53.570;9.718;2022-09-09T03:35:09;10.45;;;9.52;;
11131;SDS011;5620;53.570;9.718;2022-09-09T03:37:37;15.65;;;9.82;;
11131;SDS011;5620;53.570;9.718;2022-09-09T03:40:04;14.35;;;9.93;;
11131;SDS011;5620;53.570;9.718;2022-09-09T03:42:31;14.88;;;10.45;;
11131;SDS011;5620;53.570;9.718;2022-09-09T03:44:59;11.87;;;10.13;;
11131;SDS011;5620;53.570;9.718;2022-09-09T03:47:25;11.18;;;9.88;;
11131;SDS011;5620;53.570;9.718;2022-09-09T03:49:53;13.65;;;9.35;;
11131;SDS011;5620;53.570;9.718;2022-09-09T03:52:21;11.73;;;9.57;;
11131;SDS011;5620;53.570;9.718;2022-09-09T03:54:49;10.45;;;9.32;;
11131;SDS011;5620;53.570;9.718;2022-09-09T03:57:16;77.70;;;47.57;;
11131;SDS011;5620;53.570;9.718;2022-09-09T03:59:43;32.17;;;22.02;;
11131;SDS011;5620;53.570;9.718;2022-09-09T04:02:10;12.13;;;10.93;;
11131;SDS011;5620;53.570;9.718;2022-09-09T04:04:38;12.65;;;9.63;;
11131;SDS011;5620;53.570;9.718;2022-09-09T04:07:05;10.18;;;9.27;;
11131;SDS011;5620;53.570;9.718;2022-09-09T04:09:33;11.77;;;9.60;;
11131;SDS011;5620;53.570;9.718;2022-09-09T04:12:01;14.38;;;8.93;;
11131;SDS011;5620;53.570;9.718;2022-09-09T04:14:28;11.20;;;9.18;;
11131;SDS011;5620;53.570;9.718;2022-09-09T04:16:54;12.82;;;8.95;;
11131;SDS011;5620;53.570;9.718;2022-09-09T04:19:22;9.98;;;8.93;;
11131;SDS011;5620;53.570;9.718;2022-09-09T04:21:50;13.80;;;9.43;;
11131;SDS011;5620;53.570;9.718;2022-09-09T04:24:19;9.85;;;8.75;;
11131;SDS011;5620;53.570;9.718;2022-09-09T04:26:44;11.10;;;9.32;;
11131;SDS011;5620;53.570;9.718;2022-09-09T04:29:11;12.93;;;9.30;;
11131;SDS011;5620;53.570;9.718;2022-09-09T04:31:36;17.33;;;9.75;;
11131;SDS011;5620;53.570;9.718;2022-09-09T04:34:04;12.75;;;8.65;;
11131;SDS011;5620;53.570;9.718;2022-09-09T04:36:33;12.32;;;9.27;;
11131;SDS011;5620;53.570;9.718;2022-09-09T04:39:00;10.77;;;9.73;;
11131;SDS011;5620;53.570;9.718;2022-09-09T04:41:27;10.80;;;8.60;;
11131;SDS011;5620;53.570;9.718;2022-09-09T04:43:55;9.80;;;8.50;;
11131;SDS011;5620;53.570;9.718;2022-09-09T04:46:23;11.30;;;8.20;;
11131;SDS011;5620;53.570;9.718;2022-09-09T04:48:51;8.98;;;8.18;;
11131;SDS011;5620;53.570;9.718;2022-09-09T04:51:18;9.43;;;7.88;;
11131;SDS011;5620;53.570;9.718;2022-09-09T04:53:43;8.67;;;7.73;;
11131;SDS011;5620;53.570;9.718;2022-09-09T04:56:10;7.88;;;7.28;;
11131;SDS011;5620;53.570;9.718;2022-09-09T04:58:38;9.35;;;6.93;;
11131;SDS011;5620;53.570;9.718;2022-09-09T05:01:10;12.10;;;7.22;;
11131;SDS011;5620;53.570;9.718;2022-09-09T05:03:45;9.97;;;7.40;;
11131;SDS011;5620;53.570;9.718;2022-09-09T05:06:14;8.30;;;6.82;;
11131;SDS011;5620;53.570;9.718;2022-09-09T05:08:44;11.57;;;6.60;;
11131;SDS011;5620;53.570;9.718;2022-09-09T05:11:18;30.92;;;21.58;;
11131;SDS011;5620;53.570;9.718;2022-09-09T05:13:49;15.93;;;12.05;;
11131;SDS011;5620;53.570;9.718;2022-09-09T05:16:17;8.63;;;7.43;;
11131;SDS011;5620;53.570;9.718;2022-09-09T05:18:43;11.43;;;7.20;;
11131;SDS011;5620;53.570;9.718;2022-09-09T05:21:10;7.45;;;5.65;;
11131;SDS011;5620;53.570;9.718;2022-09-09T05:23:40;7.18;;;5.72;;
11131;SDS011;5620;53.570;9.718;2022-09-09T05:26:09;7.40;;;4.90;;
11131;SDS011;5620;53.570;9.718;2022-09-09T05:28:40;5.37;;;4.70;;
11131;SDS011;5620;53.570;9.718;2022-09-09T05:31:08;9.65;;;5.03;;
11131;SDS011;5620;53.570;9.718;2022-09-09T05:33:35;6.90;;;5.20;;
11131;SDS011;5620;53.570;9.718;2022-09-09T05:36:02;10.52;;;6.03;;
11131;SDS011;5620;53.570;9.718;2022-09-09T05:38:43;23.83;;;16.55;;
11131;SDS011;5620;53.570;9.718;2022-09-09T05:41:11;17.10;;;11.52;;
11131;SDS011;5620;53.570;9.718;2022-09-09T05:43:39;5.73;;;5.23;;
11131;SDS011;5620;53.570;9.718;2022-09-09T05:46:06;5.53;;;4.55;;
11131;SDS011;5620;53.570;9.718;2022-09-09T05:48:45;4.35;;;4.05;;
11131;SDS011;5620;53.570;9.718;2022-09-09T05:51:23;4.60;;;4.20;;
11131;SDS011;5620;53.570;9.718;2022-09-09T05:53:51;5.40;;;3.85;;
11131;SDS011;5620;53.570;9.718;2022-09-09T05:59:02;5.45;;;3.88;;
11131;SDS011;5620;53.570;9.718;2022-09-09T06:01:31;90.13;;;60.63;;
11131;SDS011;5620;53.570;9.718;2022-09-09T06:04:01;29.42;;;21.63;;
11131;SDS011;5620;53.570;9.718;2022-09-09T06:06:33;11.15;;;5.25;;
11131;SDS011;5620;53.570;9.718;2022-09-09T06:09:00;4.17;;;3.30;;
11131;SDS011;5620;53.570;9.718;2022-09-09T06:11:31;10.00;;;3.58;;
11131;SDS011;5620;53.570;9.718;2022-09-09T06:13:59;4.97;;;2.85;;
11131;SDS011;5620;53.570;9.718;2022-09-09T06:16:28;6.45;;;5.65;;
11131;SDS011;5620;53.570;9.718;2022-09-09T06:18:55;17.80;;;6.63;;
11131;SDS011;5620;53.570;9.718;2022-09-09T06:21:26;6.90;;;3.50;;
11131;SDS011;5620;53.570;9.718;2022-09-09T06:23:59;8.20;;;3.55;;
11131;SDS011;5620;53.570;9.718;2022-09-09T06:26:26;8.45;;;3.85;;
11131;SDS011;5620;53.570;9.718;2022-09-09T06:29:01;5.97;;;3.20;;
11131;SDS011;5620;53.570;9.718;2022-09-09T06:31:30;5.20;;;2.85;;
11131;SDS011;5620;53.570;9.718;2022-09-09T06:33:58;3.07;;;2.80;;
11131;SDS011;5620;53.570;9.718;2022-09-09T06:36:35;4.60;;;2.72;;
11131;SDS011;5620;53.570;9.718;2022-09-09T06:39:05;3.85;;;2.75;;
11131;SDS011;5620;53.570;9.718;2022-09-09T06:41:33;6.20;;;1.73;;
11131;SDS011;5620;53.570;9.718;2022-09-09T06:43:59;9.85;;;3.65;;
11131;SDS011;5620;53.570;9.718;2022-09-09T06:46:29;4.90;;;2.33;;
11131;SDS011;5620;53.570;9.718;2022-09-09T06:48:57;4.18;;;3.28;;
11131;SDS011;5620;53.570;9.718;2022-09-09T06:51:25;5.28;;;2.88;;
11131;SDS011;5620;53.570;9.718;2022-09-09T06:54:02;7.03;;;2.55;;
11131;SDS011;5620;53.570;9.718;2022-09-09T06:56:31;6.32;;;2.45;;
11131;SDS011;5620;53.570;9.718;2022-09-09T06:59:17;4.43;;;2.40;;
11131;SDS011;5620;53.570;9.718;2022-09-09T07:01:45;2.63;;;2.42;;
11131;SDS011;5620;53.570;9.718;2022-09-09T07:04:13;6.25;;;2.63;;
11131;SDS011;5620;53.570;9.718;2022-09-09T07:06:41;3.78;;;2.65;;
11131;SDS011;5620;53.570;9.718;2022-09-09T07:09:11;3.05;;;2.15;;
11131;SDS011;5620;53.570;9.718;2022-09-09T07:11:41;4.03;;;2.53;;
11131;SDS011;5620;53.570;9.718;2022-09-09T07:14:13;4.30;;;2.55;;
11131;SDS011;5620;53.570;9.718;2022-09-09T07:16:43;4.18;;;2.63;;
11131;SDS011;5620;53.570;9.718;2022-09-09T07:19:11;2.40;;;2.20;;
11131;SDS011;5620;53.570;9.718;2022-09-09T07:21:37;2.20;;;2.00;;
11131;SDS011;5620;53.570;9.718;2022-09-09T07:24:04;4.10;;;2.17;;
11131;SDS011;5620;53.570;9.718;2022-09-09T07:26:30;3.58;;;2.05;;
11131;SDS011;5620;53.570;9.718;2022-09-09T07:28:57;6.23;;;2.47;;
11131;SDS011;5620;53.570;9.718;2022-09-09T07:31:27;8.05;;;2.47;;
11131;SDS011;5620;53.570;9.718;2022-09-09T07:34:14;3.80;;;2.00;;
11131;SDS011;5620;53.570;9.718;2022-09-09T07:36:40;3.85;;;2.10;;
11131;SDS011;5620;53.570;9.718;2022-09-09T07:39:09;6.50;;;2.07;;
11131;SDS011;5620;53.570;9.718;2022-09-09T07:44:23;6.93;;;1.67;;
11131;SDS011;5620;53.570;9.718;2022-09-09T07:46:50;3.72;;;1.85;;
11131;SDS011;5620;53.570;9.718;2022-09-09T07:49:18;2.60;;;2.38;;
11131;SDS011;5620;53.570;9.718;2022-09-09T07:51:47;2.70;;;2.00;;
11131;SDS011;5620;53.570;9.718;2022-09-09T07:54:14;3.67;;;1.70;;
11131;SDS011;5620;53.570;9.718;2022-09-09T07:56:52;2.20;;;1.52;;
11131;SDS011;5620;53.570;9.718;2022-09-09T07:59:19;4.07;;;1.95;;
11131;SDS011;5620;53.570;9.718;2022-09-09T08:01:46;4.32;;;2.10;;
11131;SDS011;5620;53.570;9.718;2022-09-09T08:04:16;5.83;;;2.20;;
11131;SDS011;5620;53.570;9.718;2022-09-09T08:09:20;3.22;;;1.58;;
11131;SDS011;5620;53.570;9.718;2022-09-09T08:11:47;1.67;;;1.30;;
11131;SDS011;5620;53.570;9.718;2022-09-09T08:14:14;5.75;;;2.08;;
11131;SDS011;5620;53.570;9.718;2022-09-09T08:16:44;3.73;;;1.77;;
11131;SDS011;5620;53.570;9.718;2022-09-09T08:19:13;5.82;;;1.73;;
11131;SDS011;5620;53.570;9.718;2022-09-09T08:21:39;2.08;;;1.27;;
11131;SDS011;5620;53.570;9.718;2022-09-09T08:24:07;3.65;;;1.45;;
11131;SDS011;5620;53.570;9.718;2022-09-09T08:26:34;2.15;;;1.80;;
11131;SDS011;5620;53.570;9.718;2022-09-09T08:29:03;3.70;;;1.90;;
11131;SDS011;5620;53.570;9.718;2022-09-09T08:31:33;2.55;;;2.20;;
11131;SDS011;5620;53.570;9.718;2022-09-09T08:34:12;2.33;;;1.48;;
11131;SDS011;5620;53.570;9.718;2022-09-09T08:36:50;4.72;;;2.20;;
11131;SDS011;5620;53.570;9.718;2022-09-09T08:39:21;2.55;;;1.85;;
11131;SDS011;5620;53.570;9.718;2022-09-09T08:45:05;2.47;;;1.20;;
11131;SDS011;5620;53.570;9.718;2022-09-09T08:50:36;3.42;;;1.50;;
11131;SDS011;5620;53.570;9.718;2022-09-09T08:53:20;6.55;;;1.48;;
11131;SDS011;5620;53.570;9.718;2022-09-09T08:55:55;3.77;;;1.33;;
11131;SDS011;5620;53.570;9.718;2022-09-09T08:58:27;2.13;;;1.30;;
11131;SDS011;5620;53.570;9.718;2022-09-09T09:09:52;1.13;;;1.00;;
11131;SDS011;5620;53.570;9.718;2022-09-09T09:12:44;2.55;;;0.98;;
11131;SDS011;5620;53.570;9.718;2022-09-09T09:15:33;4.60;;;1.23;;
11131;SDS011;5620;53.570;9.718;2022-09-09T09:18:02;4.35;;;1.10;;
11131;SDS011;5620;53.570;9.718;2022-09-09T09:23:24;5.10;;;2.93;;
11131;SDS011;5620;53.570;9.718;2022-09-09T09:25:57;1.42;;;1.13;;
11131;SDS011;5620;53.570;9.718;2022-09-09T09:28:32;2.63;;;1.17;;
11131;SDS011;5620;53.570;9.718;2022-09-09T09:33:48;3.03;;;1.20;;
11131;SDS011;5620;53.570;9.718;2022-09-09T09:36:43;4.00;;;1.17;;
11131;SDS011;5620;53.570;9.718;2022-09-09T09:39:27;3.67;;;0.93;;
11131;SDS011;5620;53.570;9.718;2022-09-09T09:41:55;2.13;;;1.20;;
11131;SDS011;5620;53.570;9.718;2022-09-09T09:44:27;2.92;;;0.77;;
11131;SDS011;5620;53.570;9.718;2022-09-09T09:49:58;1.20;;;0.60;;
11131;SDS011;5620;53.570;9.718;2022-09-09T09:52:53;3.33;;;0.70;;
11131;SDS011;5620;53.570;9.718;2022-09-09T09:55:33;2.15;;;0.73;;
11131;SDS011;5620;53.570;9.718;2022-09-09T09:58:03;2.33;;;0.60;;
11131;SDS011;5620;53.570;9.718;2022-09-09T10:00:31;4.10;;;0.80;;
11131;SDS011;5620;53.570;9.718;2022-09-09T10:02:59;0.70;;;0.50;;
11131;SDS011;5620;53.570;9.718;2022-09-09T10:05:25;2.10;;;0.40;;
11131;SDS011;5620;53.570;9.718;2022-09-09T10:16:34;6.60;;;0.60;;
11131;SDS011;5620;53.570;9.718;2022-09-09T10:22:28;1.90;;;0.50;;
11131;SDS011;5620;53.570;9.718;2022-09-09T10:36:54;1.15;;;0.40;;
11131;SDS011;5620;53.570;9.718;2022-09-09T10:42:05;1.23;;;0.45;;
11131;SDS011;5620;53.570;9.718;2022-09-09T10:50:42;2.80;;;0.60;;
11131;SDS011;5620;53.570;9.718;2022-09-09T10:53:42;1.60;;;0.32;;
11131;SDS011;5620;53.570;9.718;2022-09-09T10:56:21;2.30;;;0.85;;
11131;SDS011;5620;53.570;9.718;2022-09-09T11:01:47;4.45;;;0.52;;
11131;SDS011;5620;53.570;9.718;2022-09-09T11:04:22;3.90;;;0.30;;
11131;SDS011;5620;53.570;9.718;2022-09-09T11:07:18;1.20;;;0.40;;
11131;SDS011;5620;53.570;9.718;2022-09-09T11:10:00;4.18;;;0.45;;
11131;SDS011;5620;53.570;9.718;2022-09-09T11:12:33;2.40;;;0.80;;
11131;SDS011;5620;53.570;9.718;2022-09-09T11:15:14;2.45;;;0.88;;
11131;SDS011;5620;53.570;9.718;2022-09-09T11:17:58;2.70;;;1.85;;
11131;SDS011;5620;53.570;9.718;2022-09-09T11:20:37;1.33;;;0.60;;
11131;SDS011;5620;53.570;9.718;2022-09-09T11:23:13;1.77;;;0.50;;
11131;SDS011;5620;53.570;9.718;2022-09-09T11:25:51;2.97;;;0.40;;
11131;SDS011;5620;53.570;9.718;2022-09-09T11:28:40;2.25;;;0.35;;
11131;SDS011;5620;53.570;9.718;2022-09-09T11:34:36;3.33;;;0.80;;
11131;SDS011;5620;53.570;9.718;2022-09-09T11:43:05;1.20;;;0.50;;
11131;SDS011;5620;53.570;9.718;2022-09-09T11:45:43;3.15;;;0.50;;
11131;SDS011;5620;53.570;9.718;2022-09-09T11:53:48;2.27;;;1.00;;
11131;SDS011;5620;53.570;9.718;2022-09-09T11:56:24;2.15;;;0.50;;
11131;SDS011;5620;53.570;9.718;2022-09-09T11:59:27;1.27;;;0.50;;
11131;SDS011;5620;53.570;9.718;2022-09-09T12:02:00;2.45;;;0.68;;
11131;SDS011;5620;53.570;9.718;2022-09-09T12:04:30;1.25;;;0.60;;
11131;SDS011;5620;53.570;9.718;2022-09-09T12:12:34;1.55;;;0.60;;
11131;SDS011;5620;53.570;9.718;2022-09-09T12:17:47;2.88;;;0.35;;
11131;SDS011;5620;53.570;9.718;2022-09-09T12:31:39;2.88;;;0.50;;
11131;SDS011;5620;53.570;9.718;2022-09-09T12:36:58;3.88;;;3.58;;
11131;SDS011;5620;53.570;9.718;2022-09-09T12:39:34;1.97;;;0.80;;
11131;SDS011;5620;53.570;9.718;2022-09-09T12:42:04;2.75;;;0.50;;
11131;SDS011;5620;53.570;9.718;2022-09-09T12:44:29;3.75;;;0.47;;
11131;SDS011;5620;53.570;9.718;2022-09-09T12:46:58;1.05;;;0.43;;
11131;SDS011;5620;53.570;9.718;2022-09-09T12:49:35;2.83;;;0.40;;
11131;SDS011;5620;53.570;9.718;2022-09-09T12:52:09;2.43;;;0.57;;
11131;SDS011;5620;53.570;9.718;2022-09-09T12:54:47;2.40;;;0.85;;
11131;SDS011;5620;53.570;9.718;2022-09-09T12:57:14;3.05;;;0.70;;
11131;SDS011;5620;53.570;9.718;2022-09-09T12:59:41;3.42;;;0.52;;
11131;SDS011;5620;53.570;9.718;2022-09-09T13:02:31;4.47;;;0.55;;
11131;SDS011;5620;53.570;9.718;2022-09-09T13:05:05;3.07;;;0.60;;
11131;SDS011;5620;53.570;9.718;2022-09-09T13:07:39;3.80;;;2.55;;
11131;SDS011;5620;53.570;9.718;2022-09-09T13:10:09;3.80;;;2.35;;
11131;SDS011;5620;53.570;9.718;2022-09-09T13:12:39;5.47;;;0.90;;
11131;SDS011;5620;53.570;9.718;2022-09-09T13:15:12;1.88;;;0.60;;
11131;SDS011;5620;53.570;9.718;2022-09-09T13:17:48;1.53;;;0.43;;
11131;SDS011;5620;53.570;9.718;2022-09-09T13:20:17;4.28;;;0.43;;
11131;SDS011;5620;53.570;9.718;2022-09-09T13:22:46;2.25;;;0.43;;
11131;SDS011;5620;53.570;9.718;2022-09-09T13:30:54;2.93;;;0.80;;
11131;SDS011;5620;53.570;9.718;2022-09-09T13:33:36;1.40;;;0.40;;
11131;SDS011;5620;53.570;9.718;2022-09-09T13:36:08;2.17;;;0.70;;
11131;SDS011;5620;53.570;9.718;2022-09-09T13:38:38;6.78;;;0.70;;
11131;SDS011;5620;53.570;9.718;2022-09-09T13:44:21;3.47;;;0.70;;
11131;SDS011;5620;53.570;9.718;2022-09-09T13:47:15;3.05;;;0.40;;
11131;SDS011;5620;53.570;9.718;2022-09-09T13:52:59;1.63;;;0.50;;
11131;SDS011;5620;53.570;9.718;2022-09-09T13:55:28;1.10;;;0.30;;
11131;SDS011;5620;53.570;9.718;2022-09-09T13:58:01;0.93;;;0.30;;
11131;SDS011;5620;53.570;9.718;2022-09-09T14:00:30;1.33;;;0.47;;
11131;SDS011;5620;53.570;9.718;2022-09-09T14:02:58;2.08;;;0.60;;
11131;SDS011;5620;53.570;9.718;2022-09-09T14:05:24;1.30;;;0.60;;
11131;SDS011;5620;53.570;9.718;2022-09-09T14:07:52;2.13;;;0.90;;
11131;SDS011;5620;53.570;9.718;2022-09-09T14:10:19;1.70;;;0.80;;
11131;SDS011;5620;53.570;9.718;2022-09-09T14:12:45;2.60;;;0.45;;
11131;SDS011;5620;53.570;9.718;2022-09-09T14:15:12;0.85;;;0.38;;
11131;SDS011;5620;53.570;9.718;2022-09-09T14:17:39;0.70;;;0.30;;
11131;SDS011;5620;53.570;9.718;2022-09-09T14:20:06;2.85;;;0.57;;
11131;SDS011;5620;53.570;9.718;2022-09-09T14:22:33;2.03;;;0.40;;
11131;SDS011;5620;53.570;9.718;2022-09-09T14:24:59;2.10;;;0.47;;
11131;SDS011;5620;53.570;9.718;2022-09-09T14:27:24;3.20;;;0.80;;
11131;SDS011;5620;53.570;9.718;2022-09-09T14:29:50;1.50;;;0.50;;
11131;SDS011;5620;53.570;9.718;2022-09-09T14:32:17;2.42;;;0.63;;
11131;SDS011;5620;53.570;9.718;2022-09-09T14:34:44;2.03;;;1.57;;
11131;SDS011;5620;53.570;9.718;2022-09-09T14:37:11;2.08;;;0.50;;
11131;SDS011;5620;53.570;9.718;2022-09-09T14:39:38;1.52;;;0.63;;
11131;SDS011;5620;53.570;9.718;2022-09-09T14:42:04;2.13;;;0.50;;
11131;SDS011;5620;53.570;9.718;2022-09-09T14:44:31;1.63;;;0.50;;
11131;SDS011;5620;53.570;9.718;2022-09-09T14:46:56;3.45;;;0.38;;
11131;SDS011;5620;53.570;9.718;2022-09-09T14:49:22;1.03;;;0.50;;
11131;SDS011;5620;53.570;9.718;2022-09-09T14:51:48;1.33;;;0.60;;
11131;SDS011;5620;53.570;9.718;2022-09-09T14:54:16;1.10;;;0.50;;
11131;SDS011;5620;53.570;9.718;2022-09-09T14:56:43;1.60;;;1.03;;
11131;SDS011;5620;53.570;9.718;2022-09-09T14:59:09;5.18;;;1.48;;
11131;SDS011;5620;53.570;9.718;2022-09-09T15:01:35;1.50;;;0.40;;
11131;SDS011;5620;53.570;9.718;2022-09-09T15:04:03;4.95;;;0.70;;
11131;SDS011;5620;53.570;9.718;2022-09-09T15:06:33;1.92;;;0.60;;
11131;SDS011;5620;53.570;9.718;2022-09-09T15:09:09;4.03;;;0.60;;
11131;SDS011;5620;53.570;9.718;2022-09-09T15:11:36;1.42;;;0.60;;
11131;SDS011;5620;53.570;9.718;2022-09-09T15:14:05;0.83;;;0.60;;
11131;SDS011;5620;53.570;9.718;2022-09-09T15:16:34;4.30;;;0.50;;
11131;SDS011;5620;53.570;9.718;2022-09-09T15:19:02;1.23;;;0.40;;
11131;SDS011;5620;53.570;9.718;2022-09-09T15:21:31;3.40;;;2.45;;
11131;SDS011;5620;53.570;9.718;2022-09-09T15:24:01;3.00;;;1.30;;
11131;SDS011;5620;53.570;9.718;2022-09-09T15:26:29;1.90;;;0.80;;
11131;SDS011;5620;53.570;9.718;2022-09-09T15:28:57;2.08;;;0.65;;
11131;SDS011;5620;53.570;9.718;2022-09-09T15:31:38;3.28;;;0.50;;
11131;SDS011;5620;53.570;9.718;2022-09-09T15:34:05;5.43;;;0.50;;
11131;SDS011;5620;53.570;9.718;2022-09-09T15:36:40;1.40;;;0.70;;
11131;SDS011;5620;53.570;9.718;2022-09-09T15:39:12;1.10;;;0.40;;
11131;SDS011;5620;53.570;9.718;2022-09-09T15:41:41;1.23;;;0.40;;
11131;SDS011;5620;53.570;9.718;2022-09-09T15:44:10;6.35;;;0.90;;
11131;SDS011;5620;53.570;9.718;2022-09-09T15:46:43;2.88;;;0.40;;
11131;SDS011;5620;53.570;9.718;2022-09-09T15:49:16;1.42;;;0.40;;
11131;SDS011;5620;53.570;9.718;2022-09-09T15:51:55;0.67;;;0.30;;
11131;SDS011;5620;53.570;9.718;2022-09-09T15:54:24;2.60;;;0.57;;
11131;SDS011;5620;53.570;9.718;2022-09-09T15:56:54;2.72;;;0.40;;
11131;SDS011;5620;53.570;9.718;2022-09-09T15:59:24;2.10;;;0.40;;
11131;SDS011;5620;53.570;9.718;2022-09-09T16:01:51;2.22;;;0.55;;
11131;SDS011;5620;53.570;9.718;2022-09-09T16:04:22;3.20;;;0.47;;
11131;SDS011;5620;53.570;9.718;2022-09-09T16:07:08;2.45;;;0.70;;
11131;SDS011;5620;53.570;9.718;2022-09-09T16:09:34;1.45;;;0.73;;
11131;SDS011;5620;53.570;9.718;2022-09-09T16:12:02;0.77;;;0.75;;
11131;SDS011;5620;53.570;9.718;2022-09-09T16:14:29;2.03;;;0.43;;
11131;SDS011;5620;53.570;9.718;2022-09-09T16:16:56;1.83;;;0.30;;
11131;SDS011;5620;53.570;9.718;2022-09-09T16:19:24;3.42;;;0.40;;
11131;SDS011;5620;53.570;9.718;2022-09-09T16:21:51;2.03;;;0.30;;
11131;SDS011;5620;53.570;9.718;2022-09-09T16:24:19;2.63;;;0.40;;
11131;SDS011;5620;53.570;9.718;2022-09-09T16:26:46;3.10;;;0.57;;
11131;SDS011;5620;53.570;9.718;2022-09-09T16:29:25;1.05;;;0.45;;
11131;SDS011;5620;53.570;9.718;2022-09-09T16:31:52;0.90;;;0.30;;
11131;SDS011;5620;53.570;9.718;2022-09-09T16:34:19;2.28;;;0.60;;
11131;SDS011;5620;53.570;9.718;2022-09-09T16:36:55;2.28;;;0.75;;
11131;SDS011;5620;53.570;9.718;2022-09-09T16:39:21;2.13;;;0.70;;
11131;SDS011;5620;53.570;9.718;2022-09-09T16:41:49;0.90;;;0.40;;
11131;SDS011;5620;53.570;9.718;2022-09-09T16:44:17;8.57;;;7.72;;
11131;SDS011;5620;53.570;9.718;2022-09-09T16:46:45;2.70;;;1.67;;
11131;SDS011;5620;53.570;9.718;2022-09-09T16:49:14;2.35;;;1.05;;
11131;SDS011;5620;53.570;9.718;2022-09-09T16:51:44;0.97;;;0.60;;
11131;SDS011;5620;53.570;9.718;2022-09-09T16:54:13;1.52;;;0.50;;
11131;SDS011;5620;53.570;9.718;2022-09-09T16:56:42;0.93;;;0.40;;
11131;SDS011;5620;53.570;9.718;2022-09-09T16:59:11;49.42;;;1.35;;
11131;SDS011;5620;53.570;9.718;2022-09-09T17:01:43;0.90;;;0.30;;
11131;SDS011;5620;53.570;9.718;2022-09-09T17:04:13;1.80;;;0.40;;
11131;SDS011;5620;53.570;9.718;2022-09-09T17:06:42;1.13;;;0.30;;
11131;SDS011;5620;53.570;9.718;2022-09-09T17:09:18;1.17;;;0.30;;
11131;SDS011;5620;53.570;9.718;2022-09-09T17:11:47;0.70;;;0.30;;
11131;SDS011;5620;53.570;9.718;2022-09-09T17:14:15;0.85;;;0.40;;
11131;SDS011;5620;53.570;9.718;2022-09-09T17:16:43;0.90;;;0.43;;
11131;SDS011;5620;53.570;9.718;2022-09-09T17:19:10;0.98;;;0.38;;
11131;SDS011;5620;53.570;9.718;2022-09-09T17:21:37;1.85;;;0.40;;
11131;SDS011;5620;53.570;9.718;2022-09-09T17:24:03;4.72;;;0.40;;
11131;SDS011;5620;53.570;9.718;2022-09-09T17:26:33;1.23;;;0.40;;
11131;SDS011;5620;53.570;9.718;2022-09-09T17:29:02;1.20;;;0.50;;
11131;SDS011;5620;53.570;9.718;2022-09-09T17:31:29;1.10;;;0.75;;
11131;SDS011;5620;53.570;9.718;2022-09-09T17:34:00;0.57;;;0.40;;
11131;SDS011;5620;53.570;9.718;2022-09-09T17:36:29;8.10;;;3.80;;
11131;SDS011;5620;53.570;9.718;2022-09-09T17:38:58;5.25;;;3.40;;
11131;SDS011;5620;53.570;9.718;2022-09-09T17:41:34;23.33;;;9.27;;
11131;SDS011;5620;53.570;9.718;2022-09-09T17:44:03;3.05;;;1.27;;
11131;SDS011;5620;53.570;9.718;2022-09-09T17:46:33;0.77;;;0.60;;
11131;SDS011;5620;53.570;9.718;2022-09-09T17:49:03;0.63;;;0.32;;
11131;SDS011;5620;53.570;9.718;2022-09-09T17:51:31;1.20;;;0.50;;
11131;SDS011;5620;53.570;9.718;2022-09-09T17:54:01;0.80;;;0.40;;
11131;SDS011;5620;53.570;9.718;2022-09-09T17:56:30;0.75;;;0.40;;
11131;SDS011;5620;53.570;9.718;2022-09-09T17:58:58;2.90;;;0.50;;